Aspen (ASE/KASE)

Map

Destinations

Information

Location
Aspen, CO
Local Time
14:30 / 2:30 pm
GMT Time
20:30 / 8:30 pm
Gates
Unassigned
No FAA reported delays
METAR KASE 231953Z 35011KT 10SM CLR 14/M02 A3049 RMK AO2 SLP259 T01441022
TAF KASE 231727Z 2318/2418 VRB04KT P6SM BKN200 FM231900 35013G22KT P6SM FEW080 BKN200 FM240000 34008KT P6SM FEW100 SCT200 FM240200 21008KT P6SM FEW110 FEW200